createdAt,value
2022-11-01T00:00:04.406Z,950.97
2022-11-01T00:00:15.417Z,950.98
2022-11-01T00:00:27.427Z,950.98
2022-11-01T00:00:38.440Z,950.97
2022-11-01T00:00:49.460Z,950.97
2022-11-01T00:01:00.482Z,950.97
2022-11-01T00:01:11.402Z,950.96
2022-11-01T00:01:22.461Z,950.96
2022-11-01T00:01:33.484Z,950.95
2022-11-01T00:01:44.603Z,950.94
2022-11-01T00:01:56.516Z,950.94
2022-11-01T00:02:08.522Z,950.93
2022-11-01T00:02:19.482Z,950.92
2022-11-01T00:02:30.492Z,950.92
2022-11-01T00:02:41.517Z,950.92
2022-11-01T00:02:52.393Z,950.92
2022-11-01T00:03:03.409Z,950.93
2022-11-01T00:03:14.417Z,950.93
2022-11-01T00:03:25.420Z,950.93
2022-11-01T00:03:37.422Z,950.92
2022-11-01T00:03:49.427Z,950.91
2022-11-01T00:04:00.434Z,950.92
2022-11-01T00:04:11.434Z,950.93
2022-11-01T00:04:22.439Z,950.93
2022-11-01T00:04:33.445Z,950.93
2022-11-01T00:04:44.477Z,950.94
2022-11-01T00:04:56.459Z,950.94
2022-11-01T00:05:07.486Z,950.94
2022-11-01T00:05:19.400Z,950.93
2022-11-01T00:05:31.406Z,950.94
2022-11-01T00:05:42.413Z,950.93
2022-11-01T00:05:53.429Z,950.93
2022-11-01T00:06:04.450Z,950.92
2022-11-01T00:06:15.460Z,950.93
2022-11-01T00:06:26.468Z,950.94
2022-11-01T00:06:37.474Z,950.94
2022-11-01T00:06:48.483Z,950.93
2022-11-01T00:06:59.389Z,950.94
2022-11-01T00:07:10.405Z,950.93
2022-11-01T00:07:22.410Z,950.93
2022-11-01T00:07:33.425Z,950.92
2022-11-01T00:07:44.438Z,950.91
2022-11-01T00:07:55.446Z,950.90
2022-11-01T00:08:06.460Z,950.91
2022-11-01T00:08:17.482Z,950.91
2022-11-01T00:08:28.394Z,950.90
2022-11-01T00:08:39.405Z,950.89
2022-11-01T00:08:50.406Z,950.90
2022-11-01T00:09:01.413Z,950.89
2022-11-01T00:09:12.423Z,950.89
2022-11-01T00:09:23.431Z,950.90
2022-11-01T00:09:34.433Z,950.91
2022-11-01T00:09:46.438Z,950.90
2022-11-01T00:09:57.443Z,950.89
2022-11-01T00:10:08.541Z,950.90
2022-11-01T00:10:20.458Z,950.90
2022-11-01T00:10:31.477Z,950.91
2022-11-01T00:10:42.485Z,950.91
2022-11-01T00:10:54.406Z,950.91
2022-11-01T00:11:05.429Z,950.90
2022-11-01T00:11:16.442Z,950.90
2022-11-01T00:11:27.455Z,950.90
2022-11-01T00:11:38.481Z,950.90
2022-11-01T00:11:50.404Z,950.91
2022-11-01T00:12:01.397Z,950.91
2022-11-01T00:12:12.412Z,950.90
2022-11-01T00:12:23.432Z,950.91
2022-11-01T00:12:34.442Z,950.91
2022-11-01T00:12:45.447Z,950.92
2022-11-01T00:12:56.453Z,950.92
2022-11-01T00:13:07.471Z,950.92
2022-11-01T00:13:18.479Z,950.92
2022-11-01T00:13:30.399Z,950.92
2022-11-01T00:13:41.404Z,950.92
2022-11-01T00:13:53.406Z,950.93
2022-11-01T00:14:04.412Z,950.94
2022-11-01T00:14:15.473Z,950.92
2022-11-01T00:14:26.435Z,950.94
2022-11-01T00:14:37.445Z,950.94
2022-11-01T00:14:48.451Z,950.94
2022-11-01T00:14:59.459Z,950.96
2022-11-01T00:15:10.464Z,950.95
2022-11-01T00:15:21.478Z,950.97
2022-11-01T00:15:32.479Z,950.94
2022-11-01T00:15:44.401Z,950.94
2022-11-01T00:15:55.411Z,950.94
2022-11-01T00:16:06.431Z,950.94
2022-11-01T00:16:17.443Z,950.94
2022-11-01T00:16:28.445Z,950.93
2022-11-01T00:16:39.453Z,950.94
2022-11-01T00:16:50.463Z,950.93
2022-11-01T00:17:01.465Z,950.95
2022-11-01T00:17:12.476Z,950.95
2022-11-01T00:17:23.485Z,950.96
2022-11-01T00:17:35.405Z,950.96
2022-11-01T00:17:46.419Z,950.96
2022-11-01T00:17:57.440Z,950.94
2022-11-01T00:18:08.451Z,950.94
2022-11-01T00:18:19.463Z,950.94
2022-11-01T00:18:31.469Z,950.93
2022-11-01T00:18:42.485Z,950.93
2022-11-01T00:18:54.415Z,950.94
2022-11-01T00:19:05.426Z,950.94
2022-11-01T00:19:16.430Z,950.96
2022-11-01T00:19:27.442Z,950.96
2022-11-01T00:19:38.454Z,950.96
2022-11-01T00:19:49.483Z,950.95
2022-11-01T00:20:00.488Z,950.95
2022-11-01T00:20:12.410Z,950.94
2022-11-01T00:20:23.414Z,950.93
2022-11-01T00:20:34.443Z,950.91
2022-11-01T00:20:46.444Z,950.94
2022-11-01T00:20:57.460Z,950.91
2022-11-01T00:21:08.489Z,950.93
2022-11-01T00:21:20.395Z,950.94
2022-11-01T00:21:31.406Z,950.95
2022-11-01T00:21:43.411Z,950.96
2022-11-01T00:21:54.423Z,950.98
2022-11-01T00:22:05.438Z,950.98
2022-11-01T00:22:16.467Z,950.96
2022-11-01T00:22:27.462Z,950.96
2022-11-01T00:22:38.477Z,950.97
2022-11-01T00:22:49.484Z,950.94
2022-11-01T00:23:01.684Z,950.93
2022-11-01T00:23:12.502Z,950.95
2022-11-01T00:23:24.405Z,950.95
2022-11-01T00:23:35.411Z,950.97
2022-11-01T00:23:47.422Z,950.94
2022-11-01T00:23:58.432Z,950.96
2022-11-01T00:24:09.433Z,950.97
2022-11-01T00:24:20.443Z,950.96
2022-11-01T00:24:31.455Z,950.96
2022-11-01T00:24:42.460Z,950.94
2022-11-01T00:24:54.997Z,950.95
2022-11-01T00:25:05.458Z,950.94
2022-11-01T00:25:17.464Z,950.94
2022-11-01T00:25:28.469Z,950.94
2022-11-01T00:25:39.485Z,950.95
2022-11-01T00:25:51.404Z,950.94
2022-11-01T00:26:02.425Z,950.94
2022-11-01T00:26:13.432Z,950.94
2022-11-01T00:26:25.444Z,950.94
2022-11-01T00:26:37.555Z,950.92
2022-11-01T00:27:01.399Z,950.93
2022-11-01T00:27:13.403Z,950.90
2022-11-01T00:27:24.426Z,950.89
2022-11-01T00:27:35.428Z,950.91
2022-11-01T00:27:46.430Z,950.90
2022-11-01T00:27:57.446Z,950.89
2022-11-01T00:28:08.459Z,950.91
2022-11-01T00:28:19.475Z,950.89
2022-11-01T00:28:30.486Z,950.89
2022-11-01T00:28:42.397Z,950.89
2022-11-01T00:28:53.412Z,950.88
2022-11-01T00:29:04.433Z,950.86
2022-11-01T00:29:15.441Z,950.87
2022-11-01T00:29:27.451Z,950.88
2022-11-01T00:29:38.458Z,950.88
2022-11-01T00:29:49.462Z,950.88
2022-11-01T00:30:00.463Z,950.88
2022-11-01T00:30:11.470Z,950.88
2022-11-01T00:30:22.484Z,950.88
2022-11-01T00:30:34.409Z,950.91
2022-11-01T00:30:45.424Z,950.92
2022-11-01T00:30:56.425Z,950.91
2022-11-01T00:31:11.760Z,950.92
2022-11-01T00:31:19.474Z,950.94
2022-11-01T00:31:30.480Z,950.89
2022-11-01T00:31:41.494Z,950.89
2022-11-01T00:31:53.411Z,950.90
2022-11-01T00:32:04.416Z,950.91
2022-11-01T00:32:15.429Z,950.92
2022-11-01T00:32:27.434Z,950.90
2022-11-01T00:32:38.439Z,950.91
2022-11-01T00:32:49.445Z,950.90
2022-11-01T00:33:00.453Z,950.89
2022-11-01T00:33:11.464Z,950.89
2022-11-01T00:33:22.470Z,950.90
2022-11-01T00:33:33.474Z,950.90
2022-11-01T00:33:45.390Z,950.90
2022-11-01T00:33:56.404Z,950.89
2022-11-01T00:34:07.414Z,950.89
2022-11-01T00:34:19.420Z,950.89
2022-11-01T00:34:31.418Z,950.88
2022-11-01T00:34:43.425Z,950.91
2022-11-01T00:34:54.461Z,950.90
2022-11-01T00:35:06.445Z,950.89
2022-11-01T00:35:17.469Z,950.88
2022-11-01T00:35:28.472Z,950.88
2022-11-01T00:35:39.478Z,950.87
2022-11-01T00:35:50.395Z,950.88
2022-11-01T00:36:01.411Z,950.88
2022-11-01T00:36:12.430Z,950.89
2022-11-01T00:36:23.434Z,950.90
2022-11-01T00:36:34.447Z,950.91
2022-11-01T00:36:45.448Z,950.91
2022-11-01T00:36:56.460Z,950.92
2022-11-01T00:37:07.487Z,950.93
2022-11-01T00:37:18.493Z,950.94
2022-11-01T00:37:30.401Z,950.93
2022-11-01T00:37:42.405Z,950.94
2022-11-01T00:37:53.425Z,950.92
2022-11-01T00:38:04.700Z,950.91
2022-11-01T00:38:15.392Z,950.90
2022-11-01T00:38:26.399Z,950.91
2022-11-01T00:38:37.420Z,950.91
2022-11-01T00:38:48.435Z,950.89
2022-11-01T00:38:59.442Z,950.86
2022-11-01T00:39:10.451Z,950.87
2022-11-01T00:39:21.474Z,950.88
2022-11-01T00:39:32.484Z,950.89
2022-11-01T00:39:44.407Z,950.89
2022-11-01T00:39:55.412Z,950.89
2022-11-01T00:40:06.419Z,950.91
2022-11-01T00:40:17.429Z,950.92
2022-11-01T00:40:28.446Z,950.90
2022-11-01T00:40:39.463Z,950.89
2022-11-01T00:40:50.480Z,950.90
2022-11-01T00:41:01.501Z,950.90
2022-11-01T00:41:13.432Z,950.89
2022-11-01T00:41:24.448Z,950.87
2022-11-01T00:41:35.469Z,950.87
2022-11-01T00:41:46.483Z,950.86
2022-11-01T00:41:58.398Z,950.87
2022-11-01T00:42:09.411Z,950.86
2022-11-01T00:42:20.416Z,950.88
2022-11-01T00:42:32.425Z,950.88
2022-11-01T00:42:43.433Z,950.86
2022-11-01T00:42:54.447Z,950.88
2022-11-01T00:43:05.499Z,950.87
2022-11-01T00:43:16.505Z,950.87
2022-11-01T00:43:27.391Z,950.87
2022-11-01T00:43:38.405Z,950.87
2022-11-01T00:43:49.420Z,950.89
2022-11-01T00:44:00.436Z,950.89
2022-11-01T00:44:11.448Z,950.90
2022-11-01T00:44:22.456Z,950.90
2022-11-01T00:44:33.457Z,950.90
2022-11-01T00:44:44.473Z,950.90
2022-11-01T00:44:55.474Z,950.91
2022-11-01T00:45:07.480Z,950.92
2022-11-01T00:45:19.402Z,950.91
2022-11-01T00:45:30.412Z,950.91
2022-11-01T00:45:41.425Z,950.91
2022-11-01T00:45:52.442Z,950.91
2022-11-01T00:46:03.468Z,950.90
2022-11-01T00:46:14.472Z,950.90
2022-11-01T00:46:25.388Z,950.91
2022-11-01T00:46:36.404Z,950.91
2022-11-01T00:46:47.411Z,950.89
2022-11-01T00:46:58.411Z,950.87
2022-11-01T00:47:10.420Z,950.86
2022-11-01T00:47:21.423Z,950.86
2022-11-01T00:47:32.430Z,950.87
2022-11-01T00:47:43.448Z,950.86
2022-11-01T00:47:54.450Z,950.87
2022-11-01T00:48:05.463Z,950.87
2022-11-01T00:48:16.473Z,950.88
2022-11-01T00:48:28.474Z,950.86
2022-11-01T00:48:39.390Z,950.89
2022-11-01T00:48:50.408Z,950.88
2022-11-01T00:49:01.407Z,950.89
2022-11-01T00:49:13.411Z,950.88
2022-11-01T00:49:24.433Z,950.88
2022-11-01T00:49:35.456Z,950.87
2022-11-01T00:49:46.467Z,950.87
2022-11-01T00:49:57.492Z,950.88
2022-11-01T00:50:09.469Z,950.88
2022-11-01T00:50:20.484Z,950.88
2022-11-01T00:50:32.410Z,950.88
2022-11-01T00:50:43.429Z,950.87
2022-11-01T00:50:54.447Z,950.87
2022-11-01T00:51:06.464Z,950.87
2022-11-01T00:51:17.481Z,950.88
2022-11-01T00:51:29.400Z,950.86
2022-11-01T00:51:40.415Z,950.84
2022-11-01T00:51:51.421Z,950.84
2022-11-01T00:52:02.436Z,950.82
2022-11-01T00:52:13.451Z,950.82
2022-11-01T00:52:24.456Z,950.82
2022-11-01T00:52:35.469Z,950.84
2022-11-01T00:52:46.482Z,950.86
2022-11-01T00:52:58.406Z,950.87
2022-11-01T00:53:09.415Z,950.88
2022-11-01T00:53:20.425Z,950.89
2022-11-01T00:53:31.422Z,950.89
2022-11-01T00:53:42.432Z,950.90
2022-11-01T00:53:53.445Z,950.89
2022-11-01T00:54:04.456Z,950.88
2022-11-01T00:54:15.459Z,950.88
2022-11-01T00:54:26.486Z,950.88
2022-11-01T00:54:37.387Z,950.87
2022-11-01T00:54:48.397Z,950.87
2022-11-01T00:54:59.413Z,950.87
2022-11-01T00:55:10.420Z,950.89
2022-11-01T00:55:21.429Z,950.90
2022-11-01T00:55:32.431Z,950.89
2022-11-01T00:55:43.439Z,950.90
2022-11-01T00:55:54.454Z,950.91
2022-11-01T00:56:05.474Z,950.90
2022-11-01T00:56:16.481Z,950.92
2022-11-01T00:56:28.402Z,950.90
2022-11-01T00:56:39.415Z,950.89
2022-11-01T00:56:50.433Z,950.92
2022-11-01T00:57:01.447Z,950.86
2022-11-01T00:57:12.466Z,950.89
2022-11-01T00:57:23.476Z,950.87
2022-11-01T00:57:35.480Z,950.86
2022-11-01T00:57:47.408Z,950.87
2022-11-01T00:57:58.624Z,950.86
2022-11-01T00:58:10.416Z,950.86
2022-11-01T00:58:21.423Z,950.87
2022-11-01T00:58:33.434Z,950.85
2022-11-01T00:58:44.444Z,950.86
2022-11-01T00:58:56.445Z,950.84
2022-11-01T00:59:07.453Z,950.84
2022-11-01T00:59:18.470Z,950.84
2022-11-01T00:59:29.478Z,950.83
2022-11-01T00:59:41.080Z,950.82
2022-11-01T01:00:03.490Z,950.82
2022-11-01T01:00:15.407Z,950.82
2022-11-01T01:00:26.432Z,950.81
2022-11-01T01:00:38.429Z,950.80
2022-11-01T01:00:49.463Z,950.81
2022-11-01T01:01:00.584Z,950.82
2022-11-01T01:01:11.587Z,950.83
2022-11-01T01:01:23.604Z,950.84
2022-11-01T01:01:35.584Z,950.84
2022-11-01T01:01:47.580Z,950.82
2022-11-01T01:01:59.527Z,950.80
2022-11-01T01:02:10.633Z,950.80
2022-11-01T01:02:22.477Z,950.80
2022-11-01T01:02:33.522Z,950.80
2022-11-01T01:02:44.473Z,950.81
2022-11-01T01:02:55.481Z,950.81
2022-11-01T01:03:06.389Z,950.81
2022-11-01T01:03:17.402Z,950.82
2022-11-01T01:03:28.403Z,950.82
2022-11-01T01:03:39.413Z,950.81
2022-11-01T01:03:50.414Z,950.81
2022-11-01T01:04:01.419Z,950.81
2022-11-01T01:04:12.445Z,950.81
2022-11-01T01:04:23.454Z,950.79
2022-11-01T01:04:34.458Z,950.80
2022-11-01T01:04:45.459Z,950.79
2022-11-01T01:04:56.495Z,950.78
2022-11-01T01:05:07.507Z,950.79
2022-11-01T01:05:19.411Z,950.77
2022-11-01T01:05:30.427Z,950.76
2022-11-01T01:05:41.429Z,950.76
2022-11-01T01:05:52.436Z,950.76
2022-11-01T01:06:03.452Z,950.76
2022-11-01T01:06:14.473Z,950.74
2022-11-01T01:06:25.480Z,950.74
2022-11-01T01:06:37.403Z,950.74
2022-11-01T01:06:48.424Z,950.74
2022-11-01T01:06:59.432Z,950.73
2022-11-01T01:07:10.451Z,950.73
2022-11-01T01:07:21.472Z,950.73
2022-11-01T01:07:32.488Z,950.73
2022-11-01T01:07:44.412Z,950.72
2022-11-01T01:07:55.414Z,950.72
2022-11-01T01:08:06.430Z,950.73
2022-11-01T01:08:17.450Z,950.72
2022-11-01T01:08:28.465Z,950.73
2022-11-01T01:08:39.480Z,950.71
2022-11-01T01:08:51.494Z,950.72
2022-11-01T01:09:03.401Z,950.72
2022-11-01T01:09:14.410Z,950.71
2022-11-01T01:09:26.410Z,950.72
2022-11-01T01:09:37.418Z,950.72
2022-11-01T01:09:48.420Z,950.73
2022-11-01T01:09:59.435Z,950.74
2022-11-01T01:10:10.450Z,950.74
2022-11-01T01:10:21.465Z,950.75
2022-11-01T01:10:32.467Z,950.75
2022-11-01T01:10:43.484Z,950.75
2022-11-01T01:10:55.403Z,950.75
2022-11-01T01:11:06.418Z,950.75
2022-11-01T01:11:17.439Z,950.74
2022-11-01T01:11:28.449Z,950.75
2022-11-01T01:11:39.457Z,950.74
2022-11-01T01:11:50.473Z,950.74
2022-11-01T01:12:01.478Z,950.74
2022-11-01T01:12:12.482Z,950.74
2022-11-01T01:12:23.484Z,950.74
2022-11-01T01:12:35.405Z,950.74
2022-11-01T01:12:47.402Z,950.74
2022-11-01T01:12:58.703Z,950.73
2022-11-01T01:13:09.447Z,950.73
2022-11-01T01:13:20.457Z,950.73
2022-11-01T01:13:32.462Z,950.73
2022-11-01T01:13:44.465Z,950.72
2022-11-01T01:13:55.483Z,950.73
2022-11-01T01:14:06.390Z,950.73
2022-11-01T01:14:18.403Z,950.72
2022-11-01T01:14:32.308Z,950.72
2022-11-01T01:14:40.416Z,950.71
2022-11-01T01:14:51.418Z,950.71
2022-11-01T01:15:03.421Z,950.71
2022-11-01T01:15:15.427Z,950.71
2022-11-01T01:15:26.439Z,950.72
2022-11-01T01:15:37.448Z,950.71
2022-11-01T01:15:48.458Z,950.72
2022-11-01T01:15:59.486Z,950.71
2022-11-01T01:16:10.394Z,950.71
2022-11-01T01:16:21.414Z,950.71
2022-11-01T01:16:32.452Z,950.71
2022-11-01T01:16:44.435Z,950.71
2022-11-01T01:16:55.443Z,950.71
2022-11-01T01:17:06.461Z,950.71
2022-11-01T01:17:17.466Z,950.70
2022-11-01T01:17:32.817Z,950.69
2022-11-01T01:17:41.462Z,950.68
2022-11-01T01:17:52.470Z,950.69
2022-11-01T01:18:04.719Z,950.68
2022-11-01T01:18:15.483Z,950.69
2022-11-01T01:18:26.387Z,950.68
2022-11-01T01:18:37.398Z,950.67
2022-11-01T01:18:48.401Z,950.66
2022-11-01T01:19:00.413Z,950.66
2022-11-01T01:19:11.425Z,950.67
2022-11-01T01:19:22.430Z,950.67
2022-11-01T01:19:33.439Z,950.67
2022-11-01T01:19:44.451Z,950.67
2022-11-01T01:19:55.461Z,950.67
2022-11-01T01:20:06.467Z,950.66
2022-11-01T01:20:18.490Z,950.65
2022-11-01T01:20:29.485Z,950.66
2022-11-01T01:20:41.409Z,950.66
2022-11-01T01:20:52.438Z,950.66
2022-11-01T01:21:03.436Z,950.66
2022-11-01T01:21:14.457Z,950.66
2022-11-01T01:21:25.476Z,950.65
2022-11-01T01:21:36.484Z,950.66
2022-11-01T01:21:48.383Z,950.65
2022-11-01T01:21:59.394Z,950.67
2022-11-01T01:22:10.401Z,950.65
2022-11-01T01:22:22.405Z,950.65
2022-11-01T01:22:33.422Z,950.66
2022-11-01T01:22:44.427Z,950.66
2022-11-01T01:22:55.436Z,950.67
2022-11-01T01:23:06.438Z,950.67
2022-11-01T01:23:17.457Z,950.67
2022-11-01T01:23:28.467Z,950.67
2022-11-01T01:23:39.479Z,950.66
2022-11-01T01:23:50.481Z,950.67
2022-11-01T01:24:02.405Z,950.67
2022-11-01T01:24:13.406Z,950.66
2022-11-01T01:24:24.413Z,950.67
2022-11-01T01:24:35.416Z,950.67
2022-11-01T01:24:46.423Z,950.68
2022-11-01T01:24:57.434Z,950.67
2022-11-01T01:25:08.443Z,950.67
2022-11-01T01:25:19.443Z,950.68
2022-11-01T01:25:30.456Z,950.68
2022-11-01T01:25:41.457Z,950.67
2022-11-01T01:25:52.479Z,950.67
2022-11-01T01:26:03.475Z,950.67
2022-11-01T01:26:15.396Z,950.67
2022-11-01T01:26:26.406Z,950.68
2022-11-01T01:26:37.414Z,950.68
2022-11-01T01:26:48.431Z,950.68
2022-11-01T01:26:59.439Z,950.68
2022-11-01T01:27:10.446Z,950.67
2022-11-01T01:27:21.453Z,950.68
2022-11-01T01:27:32.483Z,950.68
2022-11-01T01:27:43.488Z,950.68
2022-11-01T01:27:55.411Z,950.67
2022-11-01T01:28:06.409Z,950.67
2022-11-01T01:28:18.419Z,950.68
2022-11-01T01:28:29.427Z,950.67
2022-11-01T01:28:43.726Z,950.66
2022-11-01T01:28:52.437Z,950.66
2022-11-01T01:29:03.445Z,950.65
2022-11-01T01:29:14.451Z,950.65
2022-11-01T01:29:25.456Z,950.66
2022-11-01T01:29:36.482Z,950.65
2022-11-01T01:29:48.404Z,950.65
2022-11-01T01:29:59.416Z,950.65
2022-11-01T01:30:10.421Z,950.64
2022-11-01T01:30:21.435Z,950.65
2022-11-01T01:30:32.445Z,950.64
2022-11-01T01:30:43.454Z,950.64
2022-11-01T01:30:54.484Z,950.64
2022-11-01T01:31:06.392Z,950.63
2022-11-01T01:31:17.409Z,950.62
2022-11-01T01:31:28.417Z,950.63
2022-11-01T01:31:39.426Z,950.62
2022-11-01T01:31:50.442Z,950.61
2022-11-01T01:32:02.448Z,950.61
2022-11-01T01:32:13.453Z,950.61
2022-11-01T01:32:24.465Z,950.60
2022-11-01T01:32:35.479Z,950.60
2022-11-01T01:32:47.400Z,950.61
2022-11-01T01:32:58.426Z,950.59
2022-11-01T01:33:09.542Z,950.58
2022-11-01T01:33:21.409Z,950.57
2022-11-01T01:33:32.425Z,950.58
2022-11-01T01:33:43.436Z,950.57
2022-11-01T01:33:54.445Z,950.57
2022-11-01T01:34:05.463Z,950.56
2022-11-01T01:34:16.467Z,950.55
2022-11-01T01:34:27.474Z,950.54
2022-11-01T01:34:38.477Z,950.54
2022-11-01T01:34:50.484Z,950.53
2022-11-01T01:35:02.390Z,950.51
2022-11-01T01:35:13.396Z,950.53
2022-11-01T01:35:24.413Z,950.52
2022-11-01T01:35:35.399Z,950.52
2022-11-01T01:35:46.421Z,950.52
2022-11-01T01:35:57.453Z,950.51
2022-11-01T01:36:08.482Z,950.51
2022-11-01T01:36:19.479Z,950.51
2022-11-01T01:36:31.480Z,950.52
2022-11-01T01:36:42.479Z,950.51
2022-11-01T01:36:54.481Z,950.51
2022-11-01T01:37:06.399Z,950.51
2022-11-01T01:37:17.416Z,950.51
2022-11-01T01:37:28.438Z,950.51
2022-11-01T01:37:39.443Z,950.51
2022-11-01T01:37:50.459Z,950.51
2022-11-01T01:38:01.776Z,950.50
2022-11-01T01:38:12.478Z,950.50
2022-11-01T01:38:23.388Z,950.51
2022-11-01T01:38:34.392Z,950.52
2022-11-01T01:38:45.387Z,950.52
2022-11-01T01:38:56.385Z,950.51
2022-11-01T01:39:07.400Z,950.50
2022-11-01T01:39:18.397Z,950.51
2022-11-01T01:39:30.405Z,950.50
2022-11-01T01:39:41.413Z,950.50
2022-11-01T01:39:53.416Z,950.50
2022-11-01T01:40:04.417Z,950.48
2022-11-01T01:40:15.426Z,950.49
2022-11-01T01:40:26.436Z,950.48
2022-11-01T01:40:38.442Z,950.47
2022-11-01T01:40:49.458Z,950.47
2022-11-01T01:41:00.475Z,950.47
2022-11-01T01:41:12.481Z,950.46
2022-11-01T01:41:23.485Z,950.45
2022-11-01T01:41:35.396Z,950.45
2022-11-01T01:41:46.409Z,950.45
2022-11-01T01:41:57.416Z,950.44
2022-11-01T01:42:08.430Z,950.44
2022-11-01T01:42:19.438Z,950.44
2022-11-01T01:42:30.456Z,950.44
2022-11-01T01:42:42.457Z,950.42
2022-11-01T01:42:53.469Z,950.42
2022-11-01T01:43:04.485Z,950.42
2022-11-01T01:43:16.403Z,950.43
2022-11-01T01:43:27.412Z,950.42
2022-11-01T01:43:38.418Z,950.42
2022-11-01T01:43:49.432Z,950.42
2022-11-01T01:44:00.457Z,950.42
2022-11-01T01:44:11.466Z,950.40
2022-11-01T01:44:22.481Z,950.40
2022-11-01T01:44:33.483Z,950.41
2022-11-01T01:44:45.485Z,950.40
2022-11-01T01:44:56.391Z,950.40
2022-11-01T01:45:07.400Z,950.40
2022-11-01T01:45:18.405Z,950.40
2022-11-01T01:45:29.431Z,950.40
2022-11-01T01:45:41.423Z,950.40
2022-11-01T01:45:53.441Z,950.39
2022-11-01T01:46:04.448Z,950.39
2022-11-01T01:46:15.467Z,950.39
2022-11-01T01:46:26.466Z,950.38
2022-11-01T01:46:38.466Z,950.38
2022-11-01T01:46:49.467Z,950.38
2022-11-01T01:47:01.468Z,950.37
2022-11-01T01:47:13.469Z,950.38
2022-11-01T01:47:24.390Z,950.38
2022-11-01T01:47:36.402Z,950.38
2022-11-01T01:47:47.408Z,950.38
2022-11-01T01:47:59.663Z,950.38
2022-11-01T01:48:11.399Z,950.37
2022-11-01T01:48:22.406Z,950.38
2022-11-01T01:48:33.406Z,950.39
2022-11-01T01:48:44.411Z,950.38
2022-11-01T01:48:55.419Z,950.37
2022-11-01T01:49:06.423Z,950.37
2022-11-01T01:49:18.427Z,950.37
2022-11-01T01:49:30.528Z,950.36
2022-11-01T01:49:42.709Z,950.36
2022-11-01T01:50:03.498Z,950.36
2022-11-01T01:50:14.386Z,950.36
2022-11-01T01:50:25.490Z,950.35
2022-11-01T01:50:37.431Z,950.35
2022-11-01T01:50:48.411Z,950.35
2022-11-01T01:51:00.422Z,950.35
2022-11-01T01:51:11.422Z,950.35
2022-11-01T01:51:23.425Z,950.34
2022-11-01T01:51:35.422Z,950.34
2022-11-01T01:51:46.426Z,950.34
2022-11-01T01:51:57.426Z,950.34
2022-11-01T01:52:08.441Z,950.33
2022-11-01T01:52:19.444Z,950.32
2022-11-01T01:52:30.455Z,950.31
2022-11-01T01:52:41.464Z,950.31
2022-11-01T01:52:52.472Z,950.30
2022-11-01T01:53:03.859Z,950.30
2022-11-01T01:53:15.472Z,950.30
2022-11-01T01:53:26.391Z,950.30
2022-11-01T01:53:38.400Z,950.29
2022-11-01T01:53:49.402Z,950.29
2022-11-01T01:54:00.408Z,950.29
2022-11-01T01:54:11.422Z,950.28
2022-11-01T01:54:22.426Z,950.28
2022-11-01T01:54:34.424Z,950.27
2022-11-01T01:54:46.428Z,950.28
2022-11-01T01:54:58.428Z,950.26
2022-11-01T01:55:09.433Z,950.26
2022-11-01T01:55:20.446Z,950.26
2022-11-01T01:55:31.457Z,950.26
2022-11-01T01:55:42.461Z,950.27
2022-11-01T01:55:53.586Z,950.27
2022-11-01T01:56:04.482Z,950.26
2022-11-01T01:56:15.385Z,950.27
2022-11-01T01:56:26.490Z,950.26
2022-11-01T01:56:38.403Z,950.26
2022-11-01T01:56:49.421Z,950.26
2022-11-01T01:57:00.430Z,950.25
2022-11-01T01:57:11.439Z,950.25
2022-11-01T01:57:22.447Z,950.25
2022-11-01T01:57:34.443Z,950.25
2022-11-01T01:57:46.446Z,950.24
2022-11-01T01:57:57.461Z,950.24
2022-11-01T01:58:08.476Z,950.24
2022-11-01T01:58:19.478Z,950.23
2022-11-01T01:58:30.487Z,950.23
2022-11-01T01:58:42.392Z,950.23
2022-11-01T01:58:53.483Z,950.23
2022-11-01T01:59:04.383Z,950.23
2022-11-01T01:59:15.487Z,950.22
2022-11-01T01:59:27.400Z,950.23
2022-11-01T01:59:38.403Z,950.23
2022-11-01T01:59:49.423Z,950.23
2022-11-01T02:00:01.427Z,950.22
2022-11-01T02:00:12.421Z,950.22
2022-11-01T02:00:23.425Z,950.23
2022-11-01T02:00:34.438Z,950.22
2022-11-01T02:00:46.531Z,950.23
2022-11-01T02:00:58.518Z,950.22
2022-11-01T02:01:09.646Z,950.22
2022-11-01T02:01:21.542Z,950.22
2022-11-01T02:01:32.677Z,950.22
2022-11-01T02:01:44.495Z,950.22
2022-11-01T02:01:55.676Z,950.23
2022-11-01T02:02:07.487Z,950.22
2022-11-01T02:02:18.506Z,950.21
2022-11-01T02:02:29.471Z,950.21
2022-11-01T02:02:40.483Z,950.20
2022-11-01T02:02:51.481Z,950.21
2022-11-01T02:03:02.861Z,950.21
2022-11-01T02:03:13.477Z,950.20
2022-11-01T02:03:25.482Z,950.21
2022-11-01T02:03:37.406Z,950.21
2022-11-01T02:03:48.413Z,950.21
2022-11-01T02:04:00.409Z,950.21
2022-11-01T02:04:12.410Z,950.22
2022-11-01T02:04:23.431Z,950.22
2022-11-01T02:04:34.453Z,950.20
2022-11-01T02:04:46.448Z,950.20
2022-11-01T02:04:57.454Z,950.20
2022-11-01T02:05:08.480Z,950.19
2022-11-01T02:05:19.481Z,950.20
2022-11-01T02:05:30.487Z,950.20
2022-11-01T02:05:42.424Z,950.21
2022-11-01T02:05:53.423Z,950.21
2022-11-01T02:06:04.426Z,950.20
2022-11-01T02:06:15.510Z,950.20
2022-11-01T02:06:26.392Z,950.20
2022-11-01T02:06:37.385Z,950.20
2022-11-01T02:06:48.393Z,950.20
2022-11-01T02:06:59.400Z,950.20
2022-11-01T02:07:10.402Z,950.21
2022-11-01T02:07:21.402Z,950.20
2022-11-01T02:07:33.406Z,950.20
2022-11-01T02:07:44.417Z,950.20
2022-11-01T02:07:55.422Z,950.20
2022-11-01T02:08:06.445Z,950.19
2022-11-01T02:08:17.446Z,950.19
2022-11-01T02:08:28.460Z,950.19
2022-11-01T02:08:39.482Z,950.19
2022-11-01T02:08:50.482Z,950.20
2022-11-01T02:09:01.395Z,950.19
2022-11-01T02:09:12.397Z,950.20
2022-11-01T02:09:28.116Z,950.19
2022-11-01T02:09:37.392Z,950.19
2022-11-01T02:09:47.394Z,950.20
2022-11-01T02:09:58.412Z,950.21
2022-11-01T02:10:09.420Z,950.21
2022-11-01T02:10:20.431Z,950.20
2022-11-01T02:10:32.429Z,950.20
2022-11-01T02:10:44.428Z,950.20
2022-11-01T02:10:55.454Z,950.20
2022-11-01T02:11:06.474Z,950.20
2022-11-01T02:11:18.471Z,950.20
2022-11-01T02:11:30.393Z,950.20
2022-11-01T02:11:42.404Z,950.19
2022-11-01T02:11:53.412Z,950.18
2022-11-01T02:12:04.425Z,950.19
2022-11-01T02:12:15.437Z,950.19
2022-11-01T02:12:27.438Z,950.18
2022-11-01T02:12:38.440Z,950.17
2022-11-01T02:12:50.443Z,950.16
2022-11-01T02:13:02.439Z,950.16
2022-11-01T02:13:14.443Z,950.17
2022-11-01T02:13:25.451Z,950.16
2022-11-01T02:13:36.450Z,950.17
2022-11-01T02:13:47.464Z,950.17
2022-11-01T02:13:58.465Z,950.18
2022-11-01T02:14:09.484Z,950.18
2022-11-01T02:14:20.387Z,950.17
2022-11-01T02:14:31.395Z,950.17
2022-11-01T02:14:42.407Z,950.18
2022-11-01T02:14:53.420Z,950.17
2022-11-01T02:15:05.423Z,950.18
2022-11-01T02:15:16.432Z,950.17
2022-11-01T02:15:28.434Z,950.17
2022-11-01T02:15:39.446Z,950.18
2022-11-01T02:15:51.448Z,950.18
2022-11-01T02:16:02.479Z,950.18
2022-11-01T02:16:13.475Z,950.17
2022-11-01T02:16:24.386Z,950.18
2022-11-01T02:16:35.392Z,950.18
2022-11-01T02:16:46.388Z,950.17
2022-11-01T02:16:57.401Z,950.17
2022-11-01T02:17:08.888Z,950.18
2022-11-01T02:17:20.407Z,950.18
2022-11-01T02:17:31.412Z,950.18
2022-11-01T02:17:42.423Z,950.18
2022-11-01T02:17:53.434Z,950.18
2022-11-01T02:18:04.677Z,950.18
2022-11-01T02:18:16.406Z,950.16
2022-11-01T02:18:27.417Z,950.16
2022-11-01T02:18:38.419Z,950.16
2022-11-01T02:18:50.426Z,950.15
2022-11-01T02:19:01.445Z,950.16
2022-11-01T02:19:12.454Z,950.16
2022-11-01T02:19:23.475Z,950.16
2022-11-01T02:19:35.474Z,950.16
2022-11-01T02:19:47.480Z,950.16
2022-11-01T02:19:59.383Z,950.16
2022-11-01T02:20:10.401Z,950.16
2022-11-01T02:20:21.408Z,950.17
2022-11-01T02:20:32.418Z,950.16
2022-11-01T02:20:44.428Z,950.16